createdAt,value
2023-02-19T00:00:08.283Z,972.10
2023-02-19T00:01:08.319Z,972.10
2023-02-19T00:02:08.474Z,972.10
2023-02-19T00:03:08.004Z,972.06
2023-02-19T00:04:08.079Z,972.06
2023-02-19T00:05:08.003Z,972.08
2023-02-19T00:06:08.091Z,972.06
2023-02-19T00:07:07.773Z,972.10
2023-02-19T00:08:07.951Z,972.04
2023-02-19T00:09:07.687Z,972.06
2023-02-19T00:10:07.926Z,972.04
2023-02-19T00:11:07.818Z,972.07
2023-02-19T00:12:07.723Z,972.08
2023-02-19T00:13:07.582Z,972.06
2023-02-19T00:14:07.745Z,972.05
2023-02-19T00:15:07.404Z,972.09
2023-02-19T00:16:07.585Z,972.03
2023-02-19T00:17:07.602Z,972.00
2023-02-19T00:18:07.375Z,972.02
2023-02-19T00:19:07.244Z,972.03
2023-02-19T00:20:07.367Z,972.03
2023-02-19T00:21:07.139Z,972.08
2023-02-19T00:22:07.179Z,972.03
2023-02-19T00:23:07.017Z,972.05
2023-02-19T00:24:07.202Z,972.11
2023-02-19T00:25:06.926Z,972.06
2023-02-19T00:26:17.745Z,972.07
2023-02-19T00:27:06.852Z,972.08
2023-02-19T00:28:07.018Z,972.06
2023-02-19T00:29:06.733Z,972.09
2023-02-19T00:30:07.898Z,972.10
2023-02-19T00:31:06.686Z,972.07
2023-02-19T00:32:06.911Z,972.06
2023-02-19T00:33:06.698Z,972.06
2023-02-19T00:34:06.665Z,972.04
2023-02-19T00:35:06.453Z,972.05
2023-02-19T00:36:06.676Z,972.08
2023-02-19T00:37:06.352Z,972.06
2023-02-19T00:38:06.480Z,972.03
2023-02-19T00:39:06.283Z,972.04
2023-02-19T00:40:06.500Z,972.02
2023-02-19T00:41:06.166Z,972.02
2023-02-19T00:42:06.318Z,972.02
2023-02-19T00:43:06.084Z,972.04
2023-02-19T00:44:06.333Z,972.02
2023-02-19T00:45:06.121Z,972.03
2023-02-19T00:46:05.976Z,971.98
2023-02-19T00:47:06.155Z,972.04
2023-02-19T00:48:05.844Z,972.02
2023-02-19T00:49:05.854Z,972.01
2023-02-19T00:50:05.794Z,972.01
2023-02-19T00:51:05.710Z,971.99
2023-02-19T00:52:05.654Z,972.00
2023-02-19T00:53:05.913Z,971.99
2023-02-19T00:54:05.557Z,971.99
2023-02-19T00:55:05.684Z,971.99
2023-02-19T00:56:06.768Z,971.98
2023-02-19T00:57:05.413Z,971.98
2023-02-19T00:58:05.367Z,971.99
2023-02-19T00:59:05.518Z,972.00
2023-02-19T01:00:05.265Z,971.99
2023-02-19T01:01:05.325Z,971.99
2023-02-19T01:02:05.374Z,971.98
2023-02-19T01:03:05.333Z,971.98
2023-02-19T01:04:06.538Z,971.96
2023-02-19T01:05:05.141Z,972.02
2023-02-19T01:06:04.984Z,971.95
2023-02-19T01:07:05.157Z,971.91
2023-02-19T01:08:05.013Z,971.93
2023-02-19T01:09:04.983Z,971.93
2023-02-19T01:10:04.797Z,971.93
2023-02-19T01:11:04.992Z,971.91
2023-02-19T01:12:04.692Z,971.89
2023-02-19T01:13:04.785Z,971.97
2023-02-19T01:14:04.613Z,971.93
2023-02-19T01:15:04.666Z,971.94
2023-02-19T01:16:04.554Z,971.98
2023-02-19T01:17:05.638Z,971.94
2023-02-19T01:18:04.404Z,971.89
2023-02-19T01:19:04.630Z,971.89
2023-02-19T01:20:04.333Z,971.93
2023-02-19T01:21:04.435Z,971.89
2023-02-19T01:22:05.676Z,971.85
2023-02-19T01:23:04.169Z,971.87
2023-02-19T01:24:04.253Z,971.84
2023-02-19T01:25:04.076Z,971.84
2023-02-19T01:26:04.289Z,971.84
2023-02-19T01:27:03.988Z,971.90
2023-02-19T01:28:03.949Z,971.89
2023-02-19T01:29:03.888Z,971.89
2023-02-19T01:30:04.138Z,971.88
2023-02-19T01:31:03.818Z,971.93
2023-02-19T01:32:03.997Z,971.96
2023-02-19T01:33:03.704Z,971.92
2023-02-19T01:34:03.966Z,971.98
2023-02-19T01:35:03.720Z,971.98
2023-02-19T01:36:03.543Z,971.95
2023-02-19T01:37:03.736Z,971.92
2023-02-19T01:38:03.497Z,971.97
2023-02-19T01:39:03.547Z,971.88
2023-02-19T01:40:03.356Z,971.86
2023-02-19T01:41:03.357Z,971.86
2023-02-19T01:42:03.418Z,971.86
2023-02-19T01:43:04.400Z,971.79
2023-02-19T01:44:03.186Z,971.81
2023-02-19T01:45:03.445Z,971.76
2023-02-19T01:46:03.070Z,971.84
2023-02-19T01:47:03.028Z,971.73
2023-02-19T01:48:03.217Z,971.78
2023-02-19T01:49:02.988Z,971.74
2023-02-19T01:50:03.022Z,971.74
2023-02-19T01:51:02.840Z,971.78
2023-02-19T01:52:03.035Z,971.76
2023-02-19T01:53:02.885Z,971.83
2023-02-19T01:54:02.851Z,971.86
2023-02-19T01:55:02.692Z,971.88
2023-02-19T01:56:02.648Z,971.88
2023-02-19T01:57:02.556Z,971.91
2023-02-19T01:58:02.662Z,971.89
2023-02-19T01:59:03.695Z,971.88
2023-02-19T02:00:02.409Z,971.86
2023-02-19T02:01:02.620Z,971.83
2023-02-19T02:02:02.377Z,971.84
2023-02-19T02:03:02.414Z,971.81
2023-02-19T02:04:02.315Z,971.78
2023-02-19T02:05:02.172Z,971.76
2023-02-19T02:06:02.140Z,971.68
2023-02-19T02:07:02.383Z,971.61
2023-02-19T02:08:02.063Z,971.57
2023-02-19T02:09:02.041Z,971.54
2023-02-19T02:10:01.933Z,971.46
2023-02-19T02:11:01.942Z,971.47
2023-02-19T02:12:01.833Z,971.46
2023-02-19T02:13:02.260Z,971.45
2023-02-19T02:14:01.740Z,971.42
2023-02-19T02:15:01.883Z,971.44
2023-02-19T02:16:01.715Z,971.37
2023-02-19T02:17:01.594Z,971.36
2023-02-19T02:18:01.558Z,971.31
2023-02-19T02:19:02.134Z,971.29
2023-02-19T02:20:01.477Z,971.27
2023-02-19T02:21:01.722Z,971.28
2023-02-19T02:22:01.399Z,971.29
2023-02-19T02:23:01.532Z,971.26
2023-02-19T02:24:01.278Z,971.28
2023-02-19T02:25:01.540Z,971.31
2023-02-19T02:26:01.197Z,971.32
2023-02-19T02:27:01.355Z,971.39
2023-02-19T02:28:01.085Z,971.34
2023-02-19T02:29:01.161Z,971.30
2023-02-19T02:30:01.049Z,971.33
2023-02-19T02:31:01.424Z,971.26
2023-02-19T02:32:01.087Z,971.22
2023-02-19T02:33:00.989Z,971.20
2023-02-19T02:34:00.803Z,971.15
2023-02-19T02:35:00.997Z,971.10
2023-02-19T02:36:00.698Z,971.04
2023-02-19T02:37:01.017Z,971.08
2023-02-19T02:38:00.607Z,971.10
2023-02-19T02:39:00.822Z,971.18
2023-02-19T02:40:00.580Z,971.19
2023-02-19T02:41:00.639Z,971.24
2023-02-19T02:42:00.413Z,971.26
2023-02-19T02:43:01.069Z,971.29
2023-02-19T02:44:00.319Z,971.25
2023-02-19T02:45:00.498Z,971.27
2023-02-19T02:46:00.271Z,971.18
2023-02-19T02:47:00.468Z,971.20
2023-02-19T02:48:00.276Z,971.22
2023-02-19T02:49:00.220Z,971.26
2023-02-19T02:50:00.284Z,971.24
2023-02-19T02:51:00.095Z,971.25
2023-02-19T02:52:00.107Z,971.25
2023-02-19T02:52:59.904Z,971.24
2023-02-19T02:53:59.848Z,971.23
2023-02-19T02:55:02.420Z,971.20
2023-02-19T02:55:59.917Z,971.17
2023-02-19T02:56:59.702Z,971.18
2023-02-19T02:57:59.999Z,971.20
2023-02-19T02:58:59.609Z,971.15
2023-02-19T02:59:59.553Z,971.21
2023-02-19T03:00:59.546Z,971.18
2023-02-19T03:01:59.782Z,971.18
2023-02-19T03:02:59.416Z,971.20
2023-02-19T03:03:59.569Z,971.18
2023-02-19T03:04:59.329Z,971.17
2023-02-19T03:05:59.277Z,971.18
2023-02-19T03:06:59.442Z,971.16
2023-02-19T03:07:59.449Z,971.19
2023-02-19T03:08:59.129Z,971.18
2023-02-19T03:09:59.216Z,971.19
2023-02-19T03:10:59.046Z,971.21
2023-02-19T03:11:58.983Z,971.19
2023-02-19T03:12:58.992Z,971.14
2023-02-19T03:13:59.062Z,971.23
2023-02-19T03:14:58.866Z,971.24
2023-02-19T03:15:59.043Z,971.29
2023-02-19T03:16:58.748Z,971.26
2023-02-19T03:17:59.634Z,971.22
2023-02-19T03:18:58.722Z,971.22
2023-02-19T03:19:58.663Z,971.17
2023-02-19T03:20:58.561Z,971.15
2023-02-19T03:21:58.576Z,971.10
2023-02-19T03:22:58.650Z,971.11
2023-02-19T03:23:58.688Z,971.08
2023-02-19T03:24:58.371Z,971.09
2023-02-19T03:25:58.505Z,971.09
2023-02-19T03:26:58.275Z,971.14
2023-02-19T03:27:58.451Z,971.19
2023-02-19T03:28:58.278Z,971.22
2023-02-19T03:29:58.399Z,971.26
2023-02-19T03:30:58.123Z,971.19
2023-02-19T03:31:58.264Z,971.19
2023-02-19T03:32:57.993Z,971.12
2023-02-19T03:33:58.046Z,971.08
2023-02-19T03:34:57.919Z,971.03
2023-02-19T03:35:58.058Z,971.04
2023-02-19T03:36:57.813Z,971.02
2023-02-19T03:37:57.876Z,970.97
2023-02-19T03:38:57.710Z,970.93
2023-02-19T03:39:57.679Z,970.97
2023-02-19T03:40:57.734Z,971.00
2023-02-19T03:41:57.691Z,971.00
2023-02-19T03:42:57.513Z,971.00
2023-02-19T03:43:57.505Z,971.07
2023-02-19T03:44:57.449Z,971.09
2023-02-19T03:45:57.450Z,971.18
2023-02-19T03:46:57.612Z,971.17
2023-02-19T03:47:57.338Z,971.17
2023-02-19T03:48:57.233Z,971.21
2023-02-19T03:49:57.241Z,971.24
2023-02-19T03:50:57.141Z,971.24
2023-02-19T03:51:57.156Z,971.24
2023-02-19T03:52:57.059Z,971.31
2023-02-19T03:53:56.988Z,971.34
2023-02-19T03:54:56.946Z,971.35
2023-02-19T03:55:57.024Z,971.39
2023-02-19T03:56:57.112Z,971.50
2023-02-19T03:57:56.892Z,971.56
2023-02-19T03:58:56.761Z,971.57
2023-02-19T03:59:56.731Z,971.48
2023-02-19T04:00:56.692Z,971.50
2023-02-19T04:01:56.832Z,971.47
2023-02-19T04:02:56.586Z,971.44
2023-02-19T04:03:56.637Z,971.39
2023-02-19T04:04:56.524Z,971.40
2023-02-19T04:05:56.428Z,971.38
2023-02-19T04:06:56.381Z,971.32
2023-02-19T04:07:56.570Z,971.35
2023-02-19T04:08:56.413Z,971.24
2023-02-19T04:09:56.363Z,971.28
2023-02-19T04:10:56.278Z,971.30
2023-02-19T04:11:56.143Z,971.29
2023-02-19T04:12:56.189Z,971.30
2023-02-19T04:13:56.080Z,971.29
2023-02-19T04:14:56.199Z,971.34
2023-02-19T04:15:55.962Z,971.22
2023-02-19T04:16:56.096Z,971.22
2023-02-19T04:17:56.019Z,971.07
2023-02-19T04:18:55.831Z,971.00
2023-02-19T04:19:55.830Z,971.04
2023-02-19T04:20:55.744Z,971.07
2023-02-19T04:21:55.743Z,971.12
2023-02-19T04:22:55.660Z,971.14
2023-02-19T04:23:55.604Z,971.13
2023-02-19T04:24:55.723Z,971.17
2023-02-19T04:25:55.534Z,971.23
2023-02-19T04:26:55.595Z,971.17
2023-02-19T04:27:55.461Z,971.20
2023-02-19T04:28:55.485Z,971.14
2023-02-19T04:29:55.302Z,971.11
2023-02-19T04:30:55.544Z,971.12
2023-02-19T04:31:55.264Z,971.11
2023-02-19T04:32:55.312Z,971.14
2023-02-19T04:33:55.125Z,971.16
2023-02-19T04:34:55.127Z,971.24
2023-02-19T04:35:55.039Z,971.32
2023-02-19T04:36:55.133Z,971.30
2023-02-19T04:37:54.931Z,971.30
2023-02-19T04:38:55.145Z,971.33
2023-02-19T04:39:54.885Z,971.29
2023-02-19T04:40:54.806Z,971.22
2023-02-19T04:41:54.758Z,971.20
2023-02-19T04:42:54.966Z,971.18
2023-02-19T04:43:54.664Z,971.23
2023-02-19T04:44:54.672Z,971.21
2023-02-19T04:45:54.698Z,971.21
2023-02-19T04:46:54.525Z,971.22
2023-02-19T04:47:54.475Z,971.16
2023-02-19T04:48:54.602Z,971.04
2023-02-19T04:49:54.381Z,970.98
2023-02-19T04:50:54.416Z,970.91
2023-02-19T04:51:54.290Z,970.92
2023-02-19T04:52:54.250Z,970.98
2023-02-19T04:53:54.205Z,971.02
2023-02-19T04:54:54.447Z,971.08
2023-02-19T04:55:54.118Z,971.15
2023-02-19T04:56:54.253Z,971.15
2023-02-19T04:57:54.014Z,971.12
2023-02-19T04:58:53.968Z,971.08
2023-02-19T04:59:54.063Z,971.06
2023-02-19T05:00:53.899Z,971.03
2023-02-19T05:01:53.908Z,971.02
2023-02-19T05:02:53.780Z,970.96
2023-02-19T05:03:53.895Z,971.03
2023-02-19T05:04:53.694Z,971.04
2023-02-19T05:05:54.732Z,971.04
2023-02-19T05:06:53.761Z,971.14
2023-02-19T05:07:53.619Z,971.18
2023-02-19T05:08:53.504Z,971.22
2023-02-19T05:09:53.524Z,971.16
2023-02-19T05:10:53.441Z,971.15
2023-02-19T05:11:53.547Z,971.12
2023-02-19T05:12:53.322Z,971.12
2023-02-19T05:14:01.484Z,971.13
2023-02-19T05:15:01.026Z,971.17
2023-02-19T05:16:02.454Z,971.15
2023-02-19T05:16:53.318Z,971.15
2023-02-19T05:17:53.174Z,971.15
2023-02-19T05:18:53.046Z,971.16
2023-02-19T05:19:53.187Z,971.16
2023-02-19T05:20:52.960Z,971.13
2023-02-19T05:21:52.906Z,971.10
2023-02-19T05:22:52.893Z,971.06
2023-02-19T05:23:52.914Z,971.08
2023-02-19T05:24:52.770Z,971.07
2023-02-19T05:25:52.861Z,971.11
2023-02-19T05:26:52.676Z,971.13
2023-02-19T05:27:52.689Z,971.14
2023-02-19T05:28:52.598Z,971.17
2023-02-19T05:29:52.645Z,971.16
2023-02-19T05:30:52.563Z,971.18
2023-02-19T05:31:52.769Z,971.16
2023-02-19T05:32:52.404Z,971.13
2023-02-19T05:33:52.352Z,971.10
2023-02-19T05:34:52.313Z,971.12
2023-02-19T05:35:52.488Z,971.13
2023-02-19T05:36:52.223Z,971.09
2023-02-19T05:37:52.304Z,971.11
2023-02-19T05:38:52.169Z,971.04
2023-02-19T05:39:52.077Z,971.05
2023-02-19T05:40:52.225Z,971.05
2023-02-19T05:41:51.991Z,971.08
2023-02-19T05:42:52.023Z,971.11
2023-02-19T05:43:51.914Z,971.18
2023-02-19T05:44:52.250Z,971.11
2023-02-19T05:45:51.803Z,971.15
2023-02-19T05:46:51.858Z,971.15
2023-02-19T05:47:51.717Z,971.09
2023-02-19T05:48:51.898Z,971.13
2023-02-19T05:49:51.627Z,971.07
2023-02-19T05:50:51.884Z,971.08
2023-02-19T05:51:51.565Z,971.02
2023-02-19T05:52:51.690Z,970.99
2023-02-19T05:53:51.441Z,971.02
2023-02-19T05:54:51.499Z,971.09
2023-02-19T05:55:51.357Z,971.06
2023-02-19T05:56:51.723Z,971.07
2023-02-19T05:57:52.341Z,971.07
2023-02-19T05:58:51.203Z,971.03
2023-02-19T05:59:51.329Z,971.16
2023-02-19T06:03:47.697Z,971.34
2023-02-19T06:04:47.496Z,971.39
2023-02-19T06:05:47.690Z,971.38
2023-02-19T06:06:47.390Z,971.40
2023-02-19T06:07:47.503Z,971.44
2023-02-19T06:08:47.314Z,971.44
2023-02-19T06:09:47.249Z,971.46
2023-02-19T06:10:47.725Z,971.52
2023-02-19T06:11:47.166Z,971.54
2023-02-19T06:12:47.329Z,971.54
2023-02-19T06:13:47.062Z,971.58
2023-02-19T06:14:47.139Z,971.66
2023-02-19T06:15:47.047Z,971.75
2023-02-19T06:16:47.162Z,971.71
2023-02-19T06:17:46.877Z,971.73
2023-02-19T06:18:47.003Z,971.73
2023-02-19T06:19:46.794Z,971.71
2023-02-19T06:20:46.836Z,971.77
2023-02-19T06:21:46.694Z,971.74
2023-02-19T06:22:46.996Z,971.72
2023-02-19T06:23:46.605Z,971.69
2023-02-19T06:24:46.808Z,971.66
2023-02-19T06:25:46.522Z,971.65
2023-02-19T06:26:46.474Z,971.64
2023-02-19T06:27:46.426Z,971.61
2023-02-19T06:28:46.627Z,971.64
2023-02-19T06:29:46.334Z,971.62
2023-02-19T06:30:46.440Z,971.68
2023-02-19T06:31:46.368Z,971.65
2023-02-19T06:32:46.227Z,971.69
2023-02-19T06:33:46.156Z,971.72
2023-02-19T06:34:46.273Z,971.77
2023-02-19T06:35:46.057Z,971.78
2023-02-19T06:36:46.085Z,971.74
2023-02-19T06:37:45.963Z,971.77
2023-02-19T06:38:45.918Z,971.78
2023-02-19T06:39:46.314Z,971.81
2023-02-19T06:40:45.828Z,971.82
2023-02-19T06:41:45.925Z,971.82
2023-02-19T06:42:45.739Z,971.82
2023-02-19T06:43:45.927Z,971.82
2023-02-19T06:44:45.732Z,971.84
2023-02-19T06:45:45.626Z,971.86
2023-02-19T06:46:45.961Z,971.92
2023-02-19T06:47:45.511Z,971.96
2023-02-19T06:48:45.570Z,971.95
2023-02-19T06:49:45.448Z,971.97
2023-02-19T06:50:45.373Z,971.93
2023-02-19T06:51:45.385Z,971.86
2023-02-19T06:52:45.435Z,971.85
2023-02-19T06:53:45.387Z,971.89
2023-02-19T06:54:45.197Z,971.88
2023-02-19T06:55:45.414Z,971.92
2023-02-19T06:56:47.009Z,971.99
2023-02-19T06:57:46.152Z,971.98
2023-02-19T06:58:45.048Z,972.06
2023-02-19T06:59:45.227Z,972.05
2023-02-19T07:00:44.968Z,972.05
2023-02-19T07:01:45.298Z,972.07
2023-02-19T07:02:44.825Z,972.10
2023-02-19T07:03:44.867Z,972.15
2023-02-19T07:04:52.529Z,972.15
2023-02-19T07:06:02.567Z,972.24
2023-02-19T07:06:52.609Z,972.22
2023-02-19T07:07:44.601Z,972.18
2023-02-19T07:08:44.556Z,972.17
2023-02-19T07:09:44.692Z,972.24
2023-02-19T07:10:44.464Z,972.23
2023-02-19T07:11:44.492Z,972.25
2023-02-19T07:12:44.558Z,972.27
2023-02-19T07:13:44.320Z,972.27
2023-02-19T07:14:44.279Z,972.28
2023-02-19T07:15:44.320Z,972.38
2023-02-19T07:16:44.209Z,972.37
2023-02-19T07:17:44.336Z,972.41
2023-02-19T07:18:44.136Z,972.40
2023-02-19T07:19:44.051Z,972.40
2023-02-19T07:20:44.014Z,972.46
2023-02-19T07:21:44.154Z,972.52
2023-02-19T07:22:43.908Z,972.52
2023-02-19T07:23:43.965Z,972.59
2023-02-19T07:24:44.776Z,972.59
2023-02-19T07:25:43.785Z,972.59
2023-02-19T07:26:43.725Z,972.60
2023-02-19T07:27:43.890Z,972.61
2023-02-19T07:28:43.640Z,972.66
2023-02-19T07:29:43.699Z,972.68
2023-02-19T07:30:43.606Z,972.67
2023-02-19T07:31:43.522Z,972.65
2023-02-19T07:32:43.726Z,972.70
2023-02-19T07:33:43.412Z,972.75
2023-02-19T07:34:43.530Z,972.72
2023-02-19T07:35:43.317Z,972.74
2023-02-19T07:36:43.645Z,972.78
2023-02-19T07:37:43.250Z,972.80
2023-02-19T07:38:43.360Z,972.84
2023-02-19T07:39:43.150Z,972.85
2023-02-19T07:40:43.383Z,972.91
2023-02-19T07:41:43.063Z,973.00
2023-02-19T07:42:43.183Z,972.98
2023-02-19T07:43:42.957Z,972.99
2023-02-19T07:44:42.997Z,973.02
2023-02-19T07:45:42.891Z,973.06
2023-02-19T07:46:43.013Z,973.08
2023-02-19T07:47:42.778Z,973.04
2023-02-19T07:48:42.875Z,973.10
2023-02-19T07:49:42.694Z,973.06
2023-02-19T07:50:42.733Z,973.06
2023-02-19T07:51:42.603Z,973.07
2023-02-19T07:52:42.758Z,973.07
2023-02-19T07:53:42.519Z,973.06
2023-02-19T07:54:42.479Z,973.07
2023-02-19T07:55:42.416Z,973.04
2023-02-19T07:56:42.477Z,973.11
2023-02-19T07:57:42.333Z,973.17
2023-02-19T07:58:42.408Z,973.16
2023-02-19T07:59:42.238Z,973.19
2023-02-19T08:00:42.225Z,973.19
2023-02-19T08:01:42.151Z,973.21
2023-02-19T08:02:42.410Z,973.26
2023-02-19T08:03:42.107Z,973.27
2023-02-19T08:04:42.124Z,973.27
2023-02-19T08:05:41.966Z,973.29
2023-02-19T08:06:41.962Z,973.29
2023-02-19T08:07:42.142Z,973.31
2023-02-19T08:08:41.845Z,973.35
2023-02-19T08:09:41.969Z,973.33
2023-02-19T08:10:41.745Z,973.37
2023-02-19T08:11:41.966Z,973.42
2023-02-19T08:12:41.658Z,973.39
2023-02-19T08:13:41.776Z,973.40
2023-02-19T08:14:41.560Z,973.40
2023-02-19T08:15:41.691Z,973.34
2023-02-19T08:16:43.507Z,973.33
2023-02-19T08:17:41.703Z,973.31
2023-02-19T08:18:41.386Z,973.32
2023-02-19T08:19:41.722Z,973.36
2023-02-19T08:20:41.308Z,973.32
2023-02-19T08:21:41.530Z,973.34
2023-02-19T08:22:41.216Z,973.33
2023-02-19T08:23:41.346Z,973.40
2023-02-19T08:24:41.125Z,973.47
2023-02-19T08:25:41.161Z,973.42
2023-02-19T08:26:41.030Z,973.44
2023-02-19T08:27:41.161Z,973.43
2023-02-19T08:28:40.957Z,973.42
2023-02-19T08:29:40.897Z,973.45
2023-02-19T08:30:40.965Z,973.46
2023-02-19T08:31:41.370Z,973.44
2023-02-19T08:32:40.769Z,973.43
2023-02-19T08:33:41.001Z,973.50
2023-02-19T08:34:40.678Z,973.47
2023-02-19T08:35:40.633Z,973.49
2023-02-19T08:36:40.603Z,973.49
2023-02-19T08:37:40.825Z,973.49
2023-02-19T08:38:40.499Z,973.46
2023-02-19T08:39:40.638Z,973.48
2023-02-19T08:40:40.428Z,973.48
2023-02-19T08:41:40.372Z,973.50
2023-02-19T08:42:40.338Z,973.43
2023-02-19T08:43:40.677Z,973.47
2023-02-19T08:44:40.264Z,973.51
2023-02-19T08:45:40.552Z,973.50
2023-02-19T08:46:40.153Z,973.50
2023-02-19T08:47:40.108Z,973.51
2023-02-19T08:48:40.284Z,973.57
2023-02-19T08:49:40.032Z,973.53
2023-02-19T08:50:40.299Z,973.54
2023-02-19T08:51:39.939Z,973.53
2023-02-19T08:52:39.916Z,973.47
2023-02-19T08:53:39.850Z,973.46
2023-02-19T08:54:39.922Z,973.52
2023-02-19T08:55:39.764Z,973.58
2023-02-19T08:56:39.941Z,973.58
2023-02-19T08:57:39.689Z,973.56
2023-02-19T08:58:39.633Z,973.54
2023-02-19T08:59:39.584Z,973.61
2023-02-19T09:00:39.759Z,973.57
2023-02-19T09:01:39.537Z,973.58
2023-02-19T09:02:39.979Z,973.59
2023-02-19T09:03:39.441Z,973.57
2023-02-19T09:04:39.368Z,973.56
2023-02-19T09:05:39.333Z,973.56
2023-02-19T09:06:40.124Z,973.51
2023-02-19T09:07:39.242Z,973.61
2023-02-19T09:08:39.414Z,973.66
2023-02-19T09:09:39.473Z,973.65
2023-02-19T09:10:39.109Z,973.68
2023-02-19T09:11:39.249Z,973.69
2023-02-19T09:12:39.026Z,973.69
2023-02-19T09:13:39.255Z,973.70
2023-02-19T09:14:39.096Z,973.73
2023-02-19T09:15:39.074Z,973.70
2023-02-19T09:16:38.852Z,973.72
2023-02-19T09:17:39.069Z,973.69
2023-02-19T09:18:38.768Z,973.70
2023-02-19T09:19:38.874Z,973.72
2023-02-19T09:20:38.678Z,973.72
2023-02-19T09:21:38.636Z,973.75
2023-02-19T09:22:38.598Z,973.71
2023-02-19T09:23:38.806Z,973.69
2023-02-19T09:24:38.773Z,973.66
2023-02-19T09:25:38.614Z,973.61
2023-02-19T09:26:38.729Z,973.60
2023-02-19T09:27:38.390Z,973.57
2023-02-19T09:28:38.353Z,973.62
2023-02-19T09:29:38.438Z,973.61
2023-02-19T09:30:38.325Z,973.66
2023-02-19T09:31:38.513Z,973.68
2023-02-19T09:32:38.173Z,973.72
2023-02-19T09:33:38.136Z,973.71
2023-02-19T09:34:38.270Z,973.74
2023-02-19T09:35:38.047Z,973.77
2023-02-19T09:36:38.293Z,973.78
2023-02-19T09:37:37.961Z,973.77
2023-02-19T09:38:38.100Z,973.75
2023-02-19T09:39:37.875Z,973.80
2023-02-19T09:40:38.110Z,973.80
2023-02-19T09:41:37.787Z,973.83
2023-02-19T09:42:37.937Z,973.87
2023-02-19T09:43:37.704Z,973.85
2023-02-19T09:44:37.940Z,973.87
2023-02-19T09:45:37.628Z,973.88
2023-02-19T09:46:37.754Z,973.88
2023-02-19T09:47:37.536Z,973.89
2023-02-19T09:48:37.767Z,973.88
2023-02-19T09:49:37.450Z,973.87
2023-02-19T09:50:37.405Z,973.86
2023-02-19T09:51:37.378Z,973.90
2023-02-19T09:52:37.486Z,973.85
2023-02-19T09:53:37.281Z,973.85
2023-02-19T09:54:37.498Z,973.89
2023-02-19T09:55:37.195Z,973.88
2023-02-19T09:56:37.152Z,973.84
2023-02-19T09:57:37.365Z,973.84
2023-02-19T09:58:37.324Z,973.85
2023-02-19T09:59:37.046Z,973.85
2023-02-19T10:00:37.132Z,973.81
2023-02-19T10:01:36.940Z,973.80
2023-02-19T10:02:36.901Z,973.88
2023-02-19T10:03:36.873Z,973.93
2023-02-19T10:04:36.970Z,973.90
2023-02-19T10:05:36.770Z,973.96
2023-02-19T10:06:36.966Z,973.91
2023-02-19T10:07:36.681Z,973.91
2023-02-19T10:08:36.645Z,973.94
2023-02-19T10:09:36.652Z,973.87
2023-02-19T10:10:36.792Z,973.90
2023-02-19T10:11:36.514Z,973.91
2023-02-19T10:12:36.605Z,973.87
2023-02-19T10:13:36.428Z,973.90
2023-02-19T10:14:36.392Z,973.89
2023-02-19T10:15:36.657Z,973.93
2023-02-19T10:16:36.302Z,973.95
2023-02-19T10:17:36.435Z,973.93
2023-02-19T10:18:36.220Z,973.93
2023-02-19T10:19:37.488Z,973.90
2023-02-19T10:20:38.357Z,973.88
2023-02-19T10:21:36.272Z,973.92
2023-02-19T10:22:36.057Z,973.90
2023-02-19T10:23:36.280Z,973.95
2023-02-19T10:24:38.327Z,973.93
2023-02-19T10:25:36.089Z,973.92
2023-02-19T10:26:37.143Z,973.88
2023-02-19T10:27:35.854Z,973.89
2023-02-19T10:28:36.144Z,973.89
2023-02-19T10:29:35.767Z,973.89
2023-02-19T10:30:36.015Z,973.96
2023-02-19T10:31:36.144Z,973.95
2023-02-19T10:32:35.640Z,973.93
2023-02-19T10:33:35.747Z,973.96
2023-02-19T10:34:35.555Z,973.99
2023-02-19T10:35:35.757Z,973.94
2023-02-19T10:36:35.475Z,973.90
2023-02-19T10:37:36.590Z,973.89
2023-02-19T10:38:35.392Z,973.89
2023-02-19T10:39:35.574Z,973.89
2023-02-19T10:40:35.327Z,973.86
2023-02-19T10:41:35.384Z,973.85
2023-02-19T10:42:35.227Z,973.84
2023-02-19T10:43:35.450Z,973.82
2023-02-19T10:44:35.149Z,973.83
2023-02-19T10:45:35.432Z,973.86
2023-02-19T10:46:35.159Z,973.81
2023-02-19T10:47:35.254Z,973.80
2023-02-19T10:48:34.985Z,973.80
2023-02-19T10:49:34.962Z,973.82
2023-02-19T10:50:34.903Z,973.83
2023-02-19T10:51:35.054Z,973.82
2023-02-19T10:52:34.825Z,973.86
2023-02-19T10:53:35.074Z,973.85
2023-02-19T10:54:34.739Z,973.83
2023-02-19T10:55:37.473Z,973.82
2023-02-19T10:56:34.879Z,973.82
2023-02-19T10:57:34.636Z,973.93
2023-02-19T10:58:34.892Z,973.89
2023-02-19T10:59:34.546Z,973.93
2023-02-19T11:00:34.709Z,973.83
2023-02-19T11:01:34.503Z,973.86
2023-02-19T11:02:34.717Z,973.89
2023-02-19T11:03:34.372Z,973.88
2023-02-19T11:04:34.574Z,973.84
2023-02-19T11:05:34.300Z,973.85
2023-02-19T11:06:35.137Z,973.91
2023-02-19T11:07:34.394Z,973.90
2023-02-19T11:08:34.358Z,973.88
2023-02-19T11:09:34.129Z,973.90
2023-02-19T11:10:35.289Z,973.92
2023-02-19T11:11:34.051Z,973.93
2023-02-19T11:12:34.279Z,973.96
2023-02-19T11:13:33.997Z,973.94
2023-02-19T11:14:34.091Z,973.91
2023-02-19T11:15:33.888Z,973.93
2023-02-19T11:16:34.104Z,973.90
2023-02-19T11:17:33.812Z,973.89
2023-02-19T11:18:33.772Z,973.91
2023-02-19T11:19:33.967Z,973.87
2023-02-19T11:20:33.935Z,973.87
2023-02-19T11:21:33.646Z,973.86
2023-02-19T11:22:33.770Z,973.86
2023-02-19T11:23:33.577Z,973.85
2023-02-19T11:24:33.525Z,973.86
2023-02-19T11:25:33.524Z,973.82
2023-02-19T11:26:33.670Z,973.83
2023-02-19T11:27:33.406Z,973.84
2023-02-19T11:28:33.471Z,973.79
2023-02-19T11:29:33.325Z,973.78
2023-02-19T11:30:35.800Z,973.71
2023-02-19T11:31:33.356Z,973.68
2023-02-19T11:32:34.323Z,973.68
2023-02-19T11:33:33.182Z,973.65
2023-02-19T11:34:33.311Z,973.66
2023-02-19T11:35:33.091Z,973.73
2023-02-19T11:36:33.048Z,973.65
2023-02-19T11:37:33.238Z,973.69
2023-02-19T11:38:32.961Z,973.65
2023-02-19T11:39:33.049Z,973.69
2023-02-19T11:40:32.889Z,973.70
2023-02-19T11:41:33.072Z,973.76
2023-02-19T11:42:32.863Z,973.74
2023-02-19T11:43:32.799Z,973.70
2023-02-19T11:44:32.878Z,973.66
2023-02-19T11:45:32.692Z,973.71
2023-02-19T11:46:32.727Z,973.67
2023-02-19T11:47:32.615Z,973.76
2023-02-19T11:48:32.580Z,973.72
2023-02-19T11:49:32.911Z,973.74
2023-02-19T11:50:32.502Z,973.81
2023-02-19T11:51:32.537Z,973.81
2023-02-19T11:52:32.426Z,973.75
2023-02-19T11:53:32.538Z,973.78
2023-02-19T11:54:32.360Z,973.77
2023-02-19T11:55:32.562Z,973.75
2023-02-19T11:56:32.284Z,973.78
2023-02-19T11:57:32.367Z,973.82
2023-02-19T11:58:32.199Z,973.84
2023-02-19T11:59:32.373Z,973.79
2023-02-19T12:00:32.131Z,973.78
2023-02-19T12:01:32.163Z,973.82
2023-02-19T12:02:32.202Z,973.76
2023-02-19T12:03:32.021Z,973.78
2023-02-19T12:04:32.208Z,973.83
2023-02-19T12:05:31.943Z,973.75
2023-02-19T12:06:31.910Z,973.71
2023-02-19T12:07:32.230Z,973.70
2023-02-19T12:08:31.842Z,973.76
2023-02-19T12:09:32.043Z,973.75
2023-02-19T12:10:31.768Z,973.73
2023-02-19T12:11:31.847Z,973.74
2023-02-19T12:12:31.697Z,973.73
2023-02-19T12:13:31.675Z,973.78
2023-02-19T12:14:31.774Z,973.78
2023-02-19T12:15:32.186Z,973.73
2023-02-19T12:16:31.828Z,973.77
2023-02-19T12:17:31.513Z,973.73
2023-02-19T12:18:31.833Z,973.75
2023-02-19T12:19:31.699Z,973.74
2023-02-19T12:20:32.007Z,973.75
2023-02-19T12:21:31.611Z,973.79
2023-02-19T12:22:31.338Z,973.76
2023-02-19T12:23:31.425Z,973.72
2023-02-19T12:24:31.429Z,973.79
2023-02-19T12:25:32.837Z,973.75
2023-02-19T12:26:31.249Z,973.71
2023-02-19T12:27:31.197Z,973.73
2023-02-19T12:28:31.254Z,973.74
2023-02-19T12:29:31.087Z,973.77
2023-02-19T12:30:31.081Z,973.76